| time (UTC) | temp F | wind direction | speed MPH | gust MPH | rain 1hr in | rain 24hr in | rain mn in | humidity % | barometer mb |
| 20260905073709 | 76 | 260 | 1.0 | 10.0 | 0.00 | 0.00 | 0.00 | 60 | 1023.6 |
| 20260905073212 | 76 | 244 | 2.0 | 10.0 | 0.00 | 0.00 | 0.00 | 60 | 1023.6 |
| 20260905072715 | 76 | 302 | 3.0 | 10.0 | 0.00 | 0.00 | 0.00 | 60 | 1023.6 |
| 20260905072209 | 76 | 241 | 2.0 | 7.0 | 0.00 | 0.00 | 0.00 | 60 | 1023.6 |
| 20260905071706 | 76 | 243 | 0.0 | 10.0 | 0.00 | 0.00 | 0.00 | 61 | 1023.6 |
| 20260905071213 | 76 | 316 | 1.0 | 11.0 | 0.00 | 0.00 | 0.00 | 61 | 1023.6 |
| 20260905070715 | 75 | 258 | 2.0 | 11.0 | 0.00 | 0.00 | 0.00 | 62 | 1023.5 |
| 20260905070218 | 75 | 215 | 2.0 | 11.0 | 0.00 | 0.00 | 0.00 | 62 | 1023.7 |
| 20260905065718 | 74 | 239 | 4.0 | 11.0 | 0.00 | 0.00 | 0.00 | 63 | 1023.5 |
| 20260905065207 | 74 | 244 | 4.0 | 0.0 | 0.00 | 0.00 | 0.00 | 64 | 1023.5 |
| 20260905064720 | 73 | 0 | 0.0 | 0.0 | 0.00 | 0.00 | 0.00 | 64 | 1023.4 |
| 20260905064212 | 72 | 0 | 0.0 | 0.0 | 0.00 | 0.00 | 0.00 | 66 | 1023.5 |
| 20260905063729 | 71 | 0 | 0.0 | 0.0 | 0.00 | 0.00 | 0.00 | 66 | 1023.5 |
| 20260905062716 | 70 | 0 | 0.0 | 0.0 | 0.00 | 0.00 | 0.00 | 67 | 1023.4 |
| 20260905061735 | 69 | 0 | 0.0 | 0.0 | 0.00 | 0.00 | 0.00 | 67 | 1023.3 |
| 20260905061207 | 69 | 0 | 0.0 | 0.0 | 0.00 | 0.00 | 0.00 | 67 | 1023.2 |
| 20260905060710 | 69 | 0 | 0.0 | 0.0 | 0.00 | 0.00 | 0.00 | 67 | 1023.1 |
| 20260905060214 | 69 | 0 | 0.0 | 0.0 | 0.00 | 0.00 | 0.00 | 67 | 1023.1 |
| 20260905055706 | 69 | 0 | 0.0 | 0.0 | 0.00 | 0.00 | 0.00 | 66 | 1022.9 |
| 20260905055218 | 69 | 0 | 0.0 | 0.0 | 0.00 | 0.00 | 0.00 | 66 | 1022.8 |
| 20260905054705 | 69 | 0 | 0.0 | 0.0 | 0.00 | 0.00 | 0.00 | 67 | 1022.7 |
| 20260905054207 | 69 | 0 | 0.0 | 0.0 | 0.00 | 0.00 | 0.00 | 70 | 1022.6 |
| 20260905053219 | 67 | 0 | 0.0 | 0.0 | 0.00 | 0.00 | 0.00 | 70 | 1022.7 |
| 20260905052712 | 67 | 0 | 0.0 | 0.0 | 0.00 | 0.00 | 0.00 | 69 | 1022.6 |
| 20260905052210 | 67 | 0 | 0.0 | 0.0 | 0.00 | 0.00 | 0.00 | 68 | 1022.6 |
| 20260905051718 | 67 | 0 | 0.0 | 0.0 | 0.00 | 0.00 | 0.00 | 68 | 1022.5 |
| 20260905051207 | 67 | 0 | 0.0 | 0.0 | 0.00 | 0.00 | 0.00 | 68 | 1022.5 |
| 20260905050706 | 67 | 0 | 0.0 | 0.0 | 0.00 | 0.00 | 0.00 | 67 | 1022.5 |
| 20260905050209 | 67 | 0 | 0.0 | 0.0 | 0.00 | 0.00 | 0.00 | 67 | 1022.4 |
| 20260905045214 | 67 | 0 | 0.0 | 0.0 | 0.00 | 0.00 | 0.00 | 67 | 1022.5 |
| 20260905044718 | 67 | 0 | 0.0 | 0.0 | 0.00 | 0.00 | 0.00 | 66 | 1022.5 |
| 20260905044219 | 67 | 0 | 0.0 | 0.0 | 0.00 | 0.00 | 0.00 | 66 | 1022.5 |
| 20260905043705 | 67 | 0 | 0.0 | 0.0 | 0.00 | 0.00 | 0.00 | 66 | 1022.4 |
| 20260905043218 | 67 | 0 | 0.0 | 0.0 | 0.00 | 0.00 | 0.00 | 66 | 1022.5 |
| 20260905042716 | 68 | 0 | 0.0 | 0.0 | 0.00 | 0.00 | 0.00 | 66 | 1022.2 |
| 20260905042210 | 68 | 0 | 0.0 | 0.0 | 0.00 | 0.00 | 0.00 | 66 | 1022.2 |
| 20260905041714 | 68 | 0 | 0.0 | 0.0 | 0.00 | 0.00 | 0.00 | 65 | 1022.2 |
| 20260905041205 | 68 | 0 | 0.0 | 0.0 | 0.00 | 0.00 | 0.00 | 65 | 1022.1 |
| 20260905040706 | 68 | 0 | 0.0 | 0.0 | 0.00 | 0.00 | 0.00 | 65 | 1022.2 |
| 20260905040218 | 69 | 0 | 0.0 | 0.0 | 0.00 | 0.00 | 0.00 | 64 | 1022.1 |
| 20260905035712 | 69 | 0 | 0.0 | 0.0 | 0.00 | 0.00 | 0.00 | 65 | 1022.1 |
| 20260905035212 | 69 | 0 | 0.0 | 0.0 | 0.00 | 0.00 | 0.00 | 64 | 1022.1 |
| 20260905034210 | 69 | 0 | 0.0 | 0.0 | 0.00 | 0.00 | 0.00 | 63 | 1022.2 |
| 20260905033217 | 69 | 0 | 0.0 | 0.0 | 0.00 | 0.00 | 0.00 | 62 | 1022.2 |
| 20260905032705 | 69 | 0 | 0.0 | 0.0 | 0.00 | 0.00 | 0.00 | 62 | 1022.1 |
| 20260905031707 | 69 | 0 | 0.0 | 0.0 | 0.00 | 0.00 | 0.00 | 62 | 1022.1 |
| 20260905031213 | 69 | 0 | 0.0 | 0.0 | 0.00 | 0.00 | 0.00 | 62 | 1022.2 |
| 20260905030226 | 70 | 0 | 0.0 | 0.0 | 0.00 | 0.00 | 0.00 | 62 | 1022.1 |
| 20260905025717 | 70 | 0 | 0.0 | 0.0 | 0.00 | 0.00 | 0.00 | 62 | 1022.1 |
| 20260905025215 | 70 | 0 | 0.0 | 0.0 | 0.00 | 0.00 | 0.00 | 61 | 1022.2 |
| 20260905024714 | 69 | 0 | 0.0 | 0.0 | 0.00 | 0.00 | 0.00 | 61 | 1022.1 |
| 20260905023707 | 69 | 0 | 0.0 | 0.0 | 0.00 | 0.00 | 0.00 | 62 | 1022.1 |
| 20260905023235 | 69 | 0 | 0.0 | 0.0 | 0.00 | 0.00 | 0.00 | 62 | 1022.0 |
| 20260905022711 | 69 | 0 | 0.0 | 0.0 | 0.00 | 0.00 | 0.00 | 62 | 1022.0 |
| 20260905022207 | 69 | 0 | 0.0 | 0.0 | 0.00 | 0.00 | 0.00 | 62 | 1022.0 |
| 20260905021707 | 69 | 0 | 0.0 | 0.0 | 0.00 | 0.00 | 0.00 | 61 | 1022.0 |
| 20260905021219 | 69 | 0 | 0.0 | 0.0 | 0.00 | 0.00 | 0.00 | 61 | 1021.8 |
| 20260905020713 | 69 | 0 | 0.0 | 0.0 | 0.00 | 0.00 | 0.00 | 61 | 1021.7 |
| 20260905020214 | 69 | 0 | 0.0 | 0.0 | 0.00 | 0.00 | 0.00 | 61 | 1021.8 |
| 20260905015709 | 69 | 0 | 0.0 | 0.0 | 0.00 | 0.00 | 0.00 | 61 | 1021.7 |
| 20260905015214 | 69 | 0 | 0.0 | 0.0 | 0.00 | 0.00 | 0.00 | 61 | 1021.7 |
| 20260905014707 | 69 | 0 | 0.0 | 0.0 | 0.00 | 0.00 | 0.00 | 61 | 1021.7 |
| 20260905014211 | 69 | 0 | 0.0 | 0.0 | 0.00 | 0.00 | 0.00 | 60 | 1021.6 |
| 20260905013709 | 69 | 0 | 0.0 | 0.0 | 0.00 | 0.00 | 0.00 | 60 | 1021.7 |
| 20260905013217 | 69 | 0 | 0.0 | 0.0 | 0.00 | 0.00 | 0.00 | 60 | 1021.7 |
| 20260905012706 | 69 | 0 | 0.0 | 0.0 | 0.00 | 0.00 | 0.00 | 61 | 1021.6 |
| 20260905012206 | 69 | 0 | 0.0 | 0.0 | 0.00 | 0.00 | 0.00 | 60 | 1021.5 |
| 20260905011708 | 69 | 0 | 0.0 | 0.0 | 0.00 | 0.00 | 0.00 | 60 | 1021.4 |
| 20260905011221 | 69 | 0 | 0.0 | 0.0 | 0.00 | 0.00 | 0.00 | 59 | 1021.4 |
| 20260905010708 | 69 | 0 | 0.0 | 0.0 | 0.00 | 0.00 | 0.00 | 59 | 1021.4 |
| 20260905010218 | 69 | 0 | 0.0 | 0.0 | 0.00 | 0.00 | 0.00 | 59 | 1021.4 |
| 20260905005707 | 69 | 0 | 0.0 | 0.0 | 0.00 | 0.00 | 0.00 | 59 | 1021.2 |
| 20260905004716 | 70 | 0 | 0.0 | 0.0 | 0.00 | 0.00 | 0.00 | 58 | 1021.2 |
| 20260905003217 | 71 | 0 | 0.0 | 0.0 | 0.00 | 0.00 | 0.00 | 56 | 1021.2 |
| 20260905002211 | 71 | 0 | 0.0 | 0.0 | 0.00 | 0.00 | 0.00 | 55 | 1021.2 |
| 20260905001712 | 72 | 0 | 0.0 | 0.0 | 0.00 | 0.00 | 0.00 | 54 | 1021.2 |
| 20260905001216 | 72 | 0 | 0.0 | 0.0 | 0.00 | 0.00 | 0.00 | 54 | 1021.3 |
| 20260905000711 | 72 | 0 | 0.0 | 0.0 | 0.00 | 0.00 | 0.00 | 53 | 1021.3 |
| 20260905000211 | 73 | 0 | 0.0 | 0.0 | 0.00 | 0.00 | 0.00 | 53 | 1021.2 |
| 20260904235219 | 73 | 0 | 0.0 | 0.0 | 0.00 | 0.00 | 0.00 | 52 | 1021.2 |
| 20260904234708 | 73 | 0 | 0.0 | 0.0 | 0.00 | 0.00 | 0.00 | 52 | 1021.2 |
| 20260904234210 | 73 | 0 | 0.0 | 0.0 | 0.00 | 0.00 | 0.00 | 51 | 1021.2 |
| 20260904233707 | 74 | 0 | 0.0 | 0.0 | 0.00 | 0.00 | 0.00 | 51 | 1021.2 |
| 20260904233217 | 74 | 0 | 0.0 | 0.0 | 0.00 | 0.00 | 0.00 | 51 | 1021.3 |
| 20260904232712 | 74 | 0 | 0.0 | 0.0 | 0.00 | 0.00 | 0.00 | 51 | 1021.2 |
| 20260904232214 | 74 | 0 | 0.0 | 0.0 | 0.00 | 0.00 | 0.00 | 51 | 1021.1 |
| 20260904231710 | 74 | 0 | 0.0 | 0.0 | 0.00 | 0.00 | 0.00 | 50 | 1021.1 |
| 20260904230713 | 74 | 0 | 0.0 | 0.0 | 0.00 | 0.00 | 0.00 | 50 | 1021.0 |
| 20260904230217 | 74 | 0 | 0.0 | 0.0 | 0.00 | 0.00 | 0.00 | 50 | 1021.0 |
| 20260904225716 | 74 | 0 | 0.0 | 0.0 | 0.00 | 0.00 | 0.00 | 50 | 1021.0 |
| 20260904225209 | 74 | 0 | 0.0 | 0.0 | 0.00 | 0.00 | 0.00 | 50 | 1021.0 |
| 20260904224218 | 74 | 0 | 0.0 | 0.0 | 0.00 | 0.00 | 0.00 | 50 | 1020.7 |
| 20260904223713 | 74 | 0 | 0.0 | 0.0 | 0.00 | 0.00 | 0.00 | 50 | 1020.8 |
| 20260904223217 | 74 | 0 | 0.0 | 0.0 | 0.00 | 0.00 | 0.00 | 50 | 1020.7 |
| 20260904222716 | 74 | 0 | 0.0 | 0.0 | 0.00 | 0.00 | 0.00 | 50 | 1020.6 |
| 20260904222213 | 74 | 0 | 0.0 | 0.0 | 0.00 | 0.00 | 0.00 | 51 | 1020.6 |
| 20260904221709 | 74 | 0 | 0.0 | 0.0 | 0.00 | 0.00 | 0.00 | 51 | 1020.5 |
| 20260904221212 | 74 | 0 | 0.0 | 0.0 | 0.00 | 0.00 | 0.00 | 50 | 1020.5 |
| 20260904220719 | 74 | 0 | 0.0 | 0.0 | 0.00 | 0.00 | 0.00 | 50 | 1020.5 |
| 20260904220208 | 74 | 0 | 0.0 | 0.0 | 0.00 | 0.00 | 0.00 | 50 | 1020.4 |
| 20260904215712 | 75 | 0 | 0.0 | 0.0 | 0.00 | 0.00 | 0.00 | 50 | 1020.4 |
| 20260904215211 | 75 | 0 | 0.0 | 0.0 | 0.00 | 0.00 | 0.00 | 50 | 1020.2 |
| 20260904214712 | 75 | 0 | 0.0 | 0.0 | 0.00 | 0.00 | 0.00 | 49 | 1020.3 |
| 20260904214205 | 76 | 0 | 0.0 | 0.0 | 0.00 | 0.00 | 0.00 | 49 | 1020.3 |
| 20260904213717 | 76 | 0 | 0.0 | 0.0 | 0.00 | 0.00 | 0.00 | 48 | 1020.2 |
| 20260904212715 | 76 | 0 | 0.0 | 0.0 | 0.00 | 0.00 | 0.00 | 47 | 1020.2 |
| 20260904212215 | 77 | 0 | 0.0 | 0.0 | 0.00 | 0.00 | 0.00 | 47 | 1020.2 |
| 20260904211707 | 77 | 0 | 0.0 | 0.0 | 0.00 | 0.00 | 0.00 | 47 | 1020.1 |
| 20260904211207 | 77 | 0 | 0.0 | 0.0 | 0.00 | 0.00 | 0.00 | 46 | 1020.1 |
| 20260904210710 | 77 | 0 | 0.0 | 0.0 | 0.00 | 0.00 | 0.00 | 46 | 1020.1 |
| 20260904210219 | 77 | 0 | 0.0 | 0.0 | 0.00 | 0.00 | 0.00 | 46 | 1020.1 |
| 20260904205707 | 78 | 0 | 0.0 | 0.0 | 0.00 | 0.00 | 0.00 | 45 | 1020.1 |
| 20260904204708 | 78 | 0 | 0.0 | 0.0 | 0.00 | 0.00 | 0.00 | 45 | 1020.0 |
| 20260904204219 | 78 | 0 | 0.0 | 0.0 | 0.00 | 0.00 | 0.00 | 45 | 1020.0 |
| 20260904203715 | 78 | 0 | 0.0 | 0.0 | 0.00 | 0.00 | 0.00 | 46 | 1019.9 |
| 20260904203207 | 78 | 0 | 0.0 | 0.0 | 0.00 | 0.00 | 0.00 | 45 | 1019.9 |
| 20260904202211 | 78 | 0 | 0.0 | 0.0 | 0.00 | 0.00 | 0.00 | 45 | 1019.9 |
| 20260904201718 | 78 | 0 | 0.0 | 0.0 | 0.00 | 0.00 | 0.00 | 45 | 1019.8 |
| 20260904201213 | 79 | 0 | 0.0 | 0.0 | 0.00 | 0.00 | 0.00 | 45 | 1019.8 |
| 20260904200710 | 79 | 0 | 0.0 | 0.0 | 0.00 | 0.00 | 0.00 | 44 | 1019.7 |
| 20260904195707 | 80 | 0 | 0.0 | 0.0 | 0.00 | 0.00 | 0.00 | 43 | 1019.7 |
| 20260904194718 | 81 | 0 | 0.0 | 0.0 | 0.00 | 0.00 | 0.00 | 42 | 1019.4 |
| 20260904193719 | 82 | 0 | 0.0 | 0.0 | 0.00 | 0.00 | 0.00 | 40 | 1019.3 |
| 20260904192710 | 83 | 0 | 0.0 | 0.0 | 0.00 | 0.00 | 0.00 | 39 | 1019.1 |
| 20260904191709 | 84 | 0 | 0.0 | 0.0 | 0.00 | 0.00 | 0.00 | 37 | 1018.9 |
| 20260904191233 | 84 | 0 | 0.0 | 0.0 | 0.00 | 0.00 | 0.00 | 37 | 1018.8 |
| 20260904190707 | 85 | 0 | 0.0 | 0.0 | 0.00 | 0.00 | 0.00 | 36 | 1018.7 |
| 20260904185714 | 87 | 0 | 0.0 | 0.0 | 0.00 | 0.00 | 0.00 | 35 | 1018.5 |
| 20260904184716 | 88 | 0 | 0.0 | 0.0 | 0.00 | 0.00 | 0.00 | 34 | 1018.4 |
| 20260904183717 | 89 | 0 | 0.0 | 0.0 | 0.00 | 0.00 | 0.00 | 31 | 1018.3 |
| 20260904183209 | 89 | 0 | 0.0 | 0.0 | 0.00 | 0.00 | 0.00 | 31 | 1018.2 |
| 20260904182710 | 90 | 0 | 0.0 | 0.0 | 0.00 | 0.00 | 0.00 | 30 | 1018.2 |
| 20260904181712 | 92 | 0 | 0.0 | 0.0 | 0.00 | 0.00 | 0.00 | 28 | 1018.2 |
| 20260904181216 | 93 | 0 | 0.0 | 0.0 | 0.00 | 0.00 | 0.00 | 28 | 1018.0 |
| 20260904180206 | 95 | 0 | 0.0 | 0.0 | 0.00 | 0.00 | 0.00 | 27 | 1018.0 |
| 20260904175711 | 95 | 0 | 0.0 | 0.0 | 0.00 | 0.00 | 0.00 | 26 | 1018.0 |
| 20260904175207 | 96 | 0 | 0.0 | 0.0 | 0.00 | 0.00 | 0.00 | 25 | 1018.0 |
| 20260904174717 | 96 | 0 | 0.0 | 0.0 | 0.00 | 0.00 | 0.00 | 24 | 1018.0 |
| 20260904174211 | 96 | 0 | 0.0 | 0.0 | 0.00 | 0.00 | 0.00 | 24 | 1017.9 |
| 20260904173709 | 97 | 0 | 0.0 | 4.0 | 0.00 | 0.00 | 0.00 | 24 | 1017.9 |
| 20260904173218 | 97 | 0 | 0.0 | 9.0 | 0.00 | 0.00 | 0.00 | 24 | 1018.0 |
| 20260904172711 | 97 | 0 | 0.0 | 9.0 | 0.00 | 0.00 | 0.00 | 24 | 1017.9 |
| 20260904172210 | 98 | 33 | 0.0 | 9.0 | 0.00 | 0.00 | 0.00 | 24 | 1017.9 |
| 20260904171711 | 97 | 21 | 0.0 | 4.0 | 0.00 | 0.00 | 0.00 | 24 | 1017.9 |
| 20260904171233 | 98 | 0 | 0.0 | 7.0 | 0.00 | 0.00 | 0.00 | 23 | 1017.9 |
| 20260904170715 | 98 | 0 | 0.0 | 7.0 | 0.00 | 0.00 | 0.00 | 24 | 1017.9 |
| 20260904170217 | 98 | 0 | 0.0 | 9.0 | 0.00 | 0.00 | 0.00 | 24 | 1017.9 |
| 20260904165207 | 98 | 8 | 0.0 | 11.0 | 0.00 | 0.00 | 0.00 | 24 | 1017.9 |
| 20260904164717 | 98 | 358 | 1.0 | 11.0 | 0.00 | 0.00 | 0.00 | 24 | 1018.0 |
| 20260904164241 | 98 | 324 | 2.0 | 11.0 | 0.00 | 0.00 | 0.00 | 23 | 1018.0 |
| 20260904163717 | 99 | 281 | 4.0 | 9.0 | 0.00 | 0.00 | 0.00 | 23 | 1017.9 |
| 20260904163214 | 99 | 9 | 2.0 | 9.0 | 0.00 | 0.00 | 0.00 | 23 | 1018.0 |
| 20260904162712 | 99 | 284 | 0.0 | 9.0 | 0.00 | 0.00 | 0.00 | 23 | 1018.0 |
| 20260904162207 | 99 | 326 | 3.0 | 9.0 | 0.00 | 0.00 | 0.00 | 23 | 1017.9 |
| 20260904161209 | 99 | 354 | 1.0 | 8.0 | 0.00 | 0.00 | 0.00 | 23 | 1018.0 |
| 20260904160715 | 99 | 327 | 2.0 | 11.0 | 0.00 | 0.00 | 0.00 | 23 | 1018.0 |
| 20260904155737 | 99 | 82 | 2.0 | 12.0 | 0.00 | 0.00 | 0.00 | 22 | 1018.0 |
| 20260904154719 | 98 | 327 | 3.0 | 16.0 | 0.00 | 0.00 | 0.00 | 23 | 1018.0 |
| 20260904154219 | 99 | 340 | 3.0 | 16.0 | 0.00 | 0.00 | 0.00 | 22 | 1018.0 |
| 20260904153706 | 99 | 289 | 3.0 | 16.0 | 0.00 | 0.00 | 0.00 | 22 | 1018.2 |
| 20260904153219 | 100 | 350 | 6.0 | 11.0 | 0.00 | 0.00 | 0.00 | 22 | 1018.0 |
| 20260904152711 | 100 | 307 | 3.0 | 10.0 | 0.00 | 0.00 | 0.00 | 22 | 1018.2 |
| 20260904152208 | 100 | 319 | 4.0 | 9.0 | 0.00 | 0.00 | 0.00 | 21 | 1018.3 |
| 20260904151706 | 100 | 240 | 0.0 | 17.0 | 0.00 | 0.00 | 0.00 | 21 | 1018.3 |
| 20260904151212 | 101 | 1 | 1.0 | 17.0 | 0.00 | 0.00 | 0.00 | 21 | 1018.3 |
| 20260904150734 | 100 | 264 | 2.0 | 17.0 | 0.00 | 0.00 | 0.00 | 21 | 1018.3 |
| 20260904150205 | 100 | 284 | 8.0 | 17.0 | 0.00 | 0.00 | 0.00 | 22 | 1018.4 |
| 20260904145711 | 100 | 272 | 2.0 | 17.0 | 0.00 | 0.00 | 0.00 | 21 | 1018.5 |
| 20260904145206 | 100 | 267 | 5.0 | 17.0 | 0.00 | 0.00 | 0.00 | 21 | 1018.6 |
| 20260904144708 | 100 | 292 | 3.0 | 16.0 | 0.00 | 0.00 | 0.00 | 21 | 1018.5 |
| 20260904144207 | 99 | 340 | 4.0 | 15.0 | 0.00 | 0.00 | 0.00 | 21 | 1018.6 |
| 20260904143715 | 99 | 333 | 6.0 | 17.0 | 0.00 | 0.00 | 0.00 | 21 | 1018.6 |
| 20260904143213 | 99 | 338 | 4.0 | 17.0 | 0.00 | 0.00 | 0.00 | 21 | 1018.6 |
| 20260904142712 | 99 | 284 | 4.0 | 17.0 | 0.00 | 0.00 | 0.00 | 21 | 1018.6 |
| 20260904142208 | 100 | 233 | 6.0 | 11.0 | 0.00 | 0.00 | 0.00 | 20 | 1018.6 |
| 20260904141713 | 100 | 35 | 2.0 | 19.0 | 0.00 | 0.00 | 0.00 | 21 | 1018.7 |
| 20260904141210 | 100 | 35 | 3.0 | 19.0 | 0.00 | 0.00 | 0.00 | 21 | 1018.6 |
| 20260904140716 | 100 | 336 | 2.0 | 19.0 | 0.00 | 0.00 | 0.00 | 21 | 1018.6 |
| 20260904140218 | 100 | 279 | 7.0 | 18.0 | 0.00 | 0.00 | 0.00 | 21 | 1018.8 |
| 20260904135707 | 100 | 260 | 4.0 | 20.0 | 0.00 | 0.00 | 0.00 | 21 | 1018.9 |
| 20260904135207 | 100 | 254 | 8.0 | 20.0 | 0.00 | 0.00 | 0.00 | 21 | 1018.9 |
| 20260904134718 | 100 | 250 | 6.0 | 21.0 | 0.00 | 0.00 | 0.00 | 20 | 1018.8 |
| 20260904133207 | 100 | 279 | 9.0 | 25.0 | 0.00 | 0.00 | 0.00 | 18 | 1018.9 |
| 20260904132715 | 100 | 293 | 9.0 | 25.0 | 0.00 | 0.00 | 0.00 | 18 | 1018.9 |
| 20260904131714 | 99 | 331 | 2.0 | 19.0 | 0.00 | 0.00 | 0.00 | 19 | 1018.9 |
| 20260904131215 | 99 | 271 | 3.0 | 19.0 | 0.00 | 0.00 | 0.00 | 22 | 1018.8 |
| 20260904130716 | 100 | 284 | 7.0 | 16.0 | 0.00 | 0.00 | 0.00 | 22 | 1018.9 |
| 20260904130207 | 99 | 295 | 6.0 | 16.0 | 0.00 | 0.00 | 0.00 | 22 | 1018.9 |
| 20260904125705 | 99 | 334 | 6.0 | 14.0 | 0.00 | 0.00 | 0.00 | 22 | 1018.9 |
| 20260904125212 | 99 | 244 | 6.0 | 15.0 | 0.00 | 0.00 | 0.00 | 22 | 1019.0 |
| 20260904124717 | 99 | 331 | 4.0 | 15.0 | 0.00 | 0.00 | 0.00 | 22 | 1018.8 |
| 20260904124211 | 99 | 262 | 5.0 | 15.0 | 0.00 | 0.00 | 0.00 | 23 | 1018.9 |
| 20260904123719 | 99 | 270 | 6.0 | 15.0 | 0.00 | 0.00 | 0.00 | 23 | 1018.9 |
| 20260904123211 | 99 | 1 | 3.0 | 15.0 | 0.00 | 0.00 | 0.00 | 24 | 1019.0 |
| 20260904122742 | 98 | 329 | 3.0 | 15.0 | 0.00 | 0.00 | 0.00 | 23 | 1018.9 |
| 20260904122210 | 98 | 333 | 5.0 | 11.0 | 0.00 | 0.00 | 0.00 | 24 | 1018.9 |
| 20260904121717 | 98 | 274 | 5.0 | 11.0 | 0.00 | 0.00 | 0.00 | 24 | 1018.9 |
| 20260904121218 | 98 | 289 | 4.0 | 11.0 | 0.00 | 0.00 | 0.00 | 25 | 1019.0 |
| 20260904120713 | 98 | 279 | 4.0 | 10.0 | 0.00 | 0.00 | 0.00 | 26 | 1019.0 |
| 20260904120214 | 97 | 288 | 3.0 | 9.0 | 0.00 | 0.00 | 0.00 | 26 | 1018.9 |
| 20260904115213 | 96 | 29 | 2.0 | 9.0 | 0.00 | 0.00 | 0.00 | 26 | 1018.9 |
| 20260904114212 | 96 | 329 | 0.0 | 9.0 | 0.00 | 0.00 | 0.00 | 27 | 1019.0 |
| 20260904113714 | 95 | 336 | 2.0 | 7.0 | 0.00 | 0.00 | 0.00 | 27 | 1019.1 |
| 20260904113206 | 95 | 323 | 2.0 | 5.0 | 0.00 | 0.00 | 0.00 | 27 | 1019.0 |
| 20260904112215 | 94 | 105 | 0.0 | 8.0 | 0.00 | 0.00 | 0.00 | 28 | 1019.0 |
| 20260904111706 | 94 | 52 | 1.0 | 8.0 | 0.00 | 0.00 | 0.00 | 28 | 1019.0 |
| 20260904111216 | 93 | 71 | 3.0 | 8.0 | 0.00 | 0.00 | 0.00 | 28 | 1019.1 |
| 20260904110712 | 93 | 22 | 4.0 | 10.0 | 0.00 | 0.00 | 0.00 | 29 | 1019.2 |
| 20260904110215 | 92 | 68 | 1.0 | 10.0 | 0.00 | 0.00 | 0.00 | 29 | 1019.2 |
| 20260904105705 | 92 | 33 | 1.0 | 10.0 | 0.00 | 0.00 | 0.00 | 30 | 1019.2 |
| 20260904105217 | 92 | 338 | 3.0 | 6.0 | 0.00 | 0.00 | 0.00 | 29 | 1019.4 |
| 20260904104717 | 92 | 0 | 0.0 | 6.0 | 0.00 | 0.00 | 0.00 | 29 | 1019.5 |
| 20260904104206 | 91 | 80 | 1.0 | 6.0 | 0.00 | 0.00 | 0.00 | 30 | 1019.4 |
| 20260904103706 | 91 | 30 | 2.0 | 6.0 | 0.00 | 0.00 | 0.00 | 29 | 1019.5 |
| 20260904103208 | 90 | 74 | 0.0 | 6.0 | 0.00 | 0.00 | 0.00 | 30 | 1019.6 |
| 20260904102708 | 90 | 21 | 1.0 | 6.0 | 0.00 | 0.00 | 0.00 | 30 | 1019.7 |
| 20260904102205 | 89 | 21 | 1.0 | 4.0 | 0.00 | 0.00 | 0.00 | 31 | 1019.8 |
| 20260904101715 | 89 | 4 | 0.0 | 9.0 | 0.00 | 0.00 | 0.00 | 31 | 1019.8 |
| 20260904101213 | 89 | 125 | 1.0 | 9.0 | 0.00 | 0.00 | 0.00 | 31 | 1019.9 |
| 20260904100716 | 89 | 104 | 1.0 | 9.0 | 0.00 | 0.00 | 0.00 | 31 | 1020.0 |
| 20260904100242 | 89 | 292 | 1.0 | 6.0 | 0.00 | 0.00 | 0.00 | 32 | 1020.0 |
| 20260904095714 | 89 | 184 | 0.0 | 6.0 | 0.00 | 0.00 | 0.00 | 31 | 1020.1 |
| 20260904095218 | 89 | 75 | 1.0 | 6.0 | 0.00 | 0.00 | 0.00 | 32 | 1020.1 |
| 20260904094710 | 88 | 91 | 1.0 | 6.0 | 0.00 | 0.00 | 0.00 | 33 | 1020.2 |
| 20260904094206 | 87 | 63 | 2.0 | 6.0 | 0.00 | 0.00 | 0.00 | 34 | 1020.2 |
| 20260904093709 | 87 | 9 | 2.0 | 3.0 | 0.00 | 0.00 | 0.00 | 35 | 1020.2 |
| 20260904093209 | 86 | 63 | 1.0 | 2.0 | 0.00 | 0.00 | 0.00 | 36 | 1020.3 |
| 20260904092707 | 86 | 338 | 0.0 | 1.0 | 0.00 | 0.00 | 0.00 | 36 | 1020.3 |
| 20260904092218 | 85 | 11 | 0.0 | 2.0 | 0.00 | 0.00 | 0.00 | 38 | 1020.4 |
| 20260904091711 | 85 | 0 | 0.0 | 2.0 | 0.00 | 0.00 | 0.00 | 38 | 1020.4 |
| 20260904091243 | 85 | 39 | 0.0 | 2.0 | 0.00 | 0.00 | 0.00 | 39 | 1020.4 |
| 20260904090715 | 84 | 160 | 0.0 | 1.0 | 0.00 | 0.00 | 0.00 | 38 | 1020.4 |
| 20260904085706 | 83 | 357 | 0.0 | 0.0 | 0.00 | 0.00 | 0.00 | 40 | 1020.4 |
| 20260904085206 | 82 | 0 | 0.0 | 0.0 | 0.00 | 0.00 | 0.00 | 40 | 1020.4 |
| 20260904084718 | 81 | 0 | 0.0 | 0.0 | 0.00 | 0.00 | 0.00 | 41 | 1020.4 |
| 20260904084217 | 81 | 0 | 0.0 | 0.0 | 0.00 | 0.00 | 0.00 | 42 | 1020.4 |
| 20260904083709 | 80 | 0 | 0.0 | 0.0 | 0.00 | 0.00 | 0.00 | 43 | 1020.4 |
| 20260904082718 | 78 | 0 | 0.0 | 0.0 | 0.00 | 0.00 | 0.00 | 45 | 1020.4 |
| 20260904082217 | 78 | 0 | 0.0 | 2.0 | 0.00 | 0.00 | 0.00 | 46 | 1020.3 |
| 20260904081709 | 77 | 0 | 0.0 | 2.0 | 0.00 | 0.00 | 0.00 | 47 | 1020.5 |
| 20260904081209 | 77 | 0 | 0.0 | 2.0 | 0.00 | 0.00 | 0.00 | 47 | 1020.5 |
| 20260904080709 | 76 | 158 | 0.0 | 2.0 | 0.00 | 0.00 | 0.00 | 49 | 1020.4 |
| 20260904080207 | 75 | 0 | 0.0 | 3.0 | 0.00 | 0.00 | 0.00 | 49 | 1020.5 |
| 20260904075206 | 74 | 195 | 0.0 | 3.0 | 0.00 | 0.00 | 0.00 | 52 | 1020.5 |
| 20260904074707 | 73 | 219 | 1.0 | 2.0 | 0.00 | 0.00 | 0.00 | 53 | 1020.6 |
| 20260904074219 | 72 | 274 | 0.0 | 2.0 | 0.00 | 0.00 | 0.00 | 54 | 1020.6 |